Wednesday, April 25, 2018, 1:08 AM EDT
Back to Local

KPKB, Mid-ohio Valley Rgnl Airport

Location: Parkersburg, WV, United States Lat: 39.333
Local Time: 1:08 AM EDT ( 5:08 GMT) Lon: -81.45
Time Zone: US/Eastern Elev: 859 ft

Show me the last for .
Show Decoded

2018-04-25 00:53 METAR KPKB 250453Z AUTO 00000KT 10SM OVC050 11/10 A2989 RMK AO2 SLP119 T01110100
                 401280106 =
2018-04-24 23:53 METAR KPKB 250353Z AUTO 00000KT 9SM OVC050 11/11 A2990 RMK AO2 SLP123 T01110106
                 =
2018-04-24 22:53 METAR KPKB 250253Z 00000KT 10SM OVC055 11/11 A2991 RMK AO2 SLP128 60001
                 T01110106 58005 =
2018-04-24 21:53 METAR KPKB 250153Z 03004KT 10SM OVC046 12/11 A2992 RMK AO2 SLP131 T01170106 =
2018-04-24 20:53 METAR KPKB 250053Z 04004KT 10SM OVC044 12/11 A2992 RMK AO2 RAE21 SLP131 P0001
                 T01170106 =
2018-04-24 19:53 METAR KPKB 242353Z 06006KT 7SM -RA OVC046 12/11 A2993 RMK AO2 SLP133 P0004 60036
                 T01170106 10128 20117 58009 =
2018-04-24 18:53 METAR KPKB 242253Z 07007KT 6SM -RA BR FEW009 OVC055 12/11 A2994 RMK AO2 SLP137
                 P0004 T01220111 =
2018-04-24 17:53 METAR KPKB 242153Z 08007KT 5SM -RA BR FEW017 BKN046 OVC055 12/11 A2995 RMK AO2
                 SLP142 P0006 T01220111 =
2018-04-24 17:35 METAR KPKB 242135Z 07006KT 4SM -RA BR FEW011 BKN044 OVC060 13/11 A2995 RMK AO2
                 P0005 T01280111 =
2018-04-24 17:03 METAR KPKB 242103Z 05004KT 4SM RA BR SCT009 BKN015 OVC047 13/12 A2996 RMK AO2
                 P0002 T01280117 =
2018-04-24 16:53 METAR KPKB 242053Z 06006KT 4SM -RA BR FEW007 BKN013 OVC047 13/11 A2996 RMK AO2
                 SLP143 P0008 60022 T01280111 56012 =
2018-04-24 16:40 METAR KPKB 242040Z 06006KT 4SM -RA BR SCT007 BKN013 OVC035 13/12 A2995 RMK AO2
                 P0006 T01280117 =
2018-04-24 16:22 METAR KPKB 242022Z 05005KT 2 1/2SM -RA BR SCT010 BKN015 OVC037 13/11 A2996 RMK
                 AO2 P0004 T01280111 =
2018-04-24 16:12 METAR KPKB 242012Z 04005KT 3SM -RA BR SCT008 BKN012 OVC036 12/11 A2996 RMK AO2
                 P0003 T01220111 =
2018-04-24 16:02 METAR KPKB 242002Z 04004KT 2 1/2SM -RA BR SCT009 BKN015 OVC036 12/11 A2996 RMK
                 AO2 P0002 T01220111 =
2018-04-24 15:56 METAR KPKB 241956Z 06004KT 2 1/2SM RA BR BKN011 BKN020 OVC060 12/11 A2996 RMK
                 AO2 P0001 T01220111 =
2018-04-24 15:53 METAR KPKB 241953Z 07004KT 3SM RA BR SCT011 BKN017 OVC060 13/11 A2996 RMK AO2
                 SLP146 P0012 T01280111 =
2018-04-24 15:48 METAR KPKB 241948Z 06004KT 3SM -RA BR FEW009 BKN014 OVC060 12/11 A2997 RMK AO2
                 P0010 =
2018-04-24 15:46 METAR KPKB 241946Z 07004KT 3SM RA BR SCT011 BKN018 OVC060 12/11 A2997 RMK AO2
                 P0010 T01220111 =
2018-04-24 15:34 METAR KPKB 241934Z 06004KT 3SM RA BR SCT009 BKN014 OVC024 12/11 A2997 RMK AO2
                 P0007 T01220111 =
2018-04-24 15:23 METAR KPKB 241923Z 06005KT 4SM RA BR FEW015 BKN023 OVC095 12/11 A2997 RMK AO2
                 P0004 T01220106 =
2018-04-24 14:53 METAR KPKB 241853Z 08007KT 6SM -RA BR BKN035 OVC042 12/11 A2998 RMK AO2 RAB01
                 SLP150 P0002 T01220106 =
2018-04-24 13:53 METAR KPKB 241753Z 07008KT 10SM BKN046 OVC055 12/11 A2999 RMK AO2 RAE52 SLP155
                 P0001 60030 T01220106 10122 20106 58016 =
2018-04-24 12:53 METAR KPKB 241653Z 07007KT 3SM -RA BR OVC070 12/10 A3001 RMK AO2 SLP160 P0006
                 T01170100 =
2018-04-24 11:53 METAR KPKB 241553Z 07008KT 3SM -RA BR SCT065 OVC085 11/10 A3003 RMK AO2 SLP168
                 P0011 T01110100 =
2018-04-24 10:53 METAR KPKB 241453Z 08007KT 3SM RA BR SCT065 BKN075 OVC095 11/09 A3004 RMK AO2
                 SLP172 P0005 60012 T01060094 56014 =
2018-04-24 09:53 METAR KPKB 241353Z 07009KT 10SM -RA SCT014 OVC070 11/09 A3005 RMK AO2 SLP176
                 P0004 T01060089 =
2018-04-24 08:53 METAR KPKB 241253Z 07011KT 6SM -RA BR FEW005 OVC090 11/09 A3007 RMK AO2 SLP181
                 P0003 T01060089 =
2018-04-24 07:53 METAR KPKB 241153Z 08008KT 10SM -RA FEW006 OVC090 11/09 A3008 RMK AO2 SLP186
                 P0001 60037 70046 T01060089 10117 20106 56007 =
2018-04-24 07:11 METAR KPKB 241111Z 08008KT 9SM -RA SCT015 OVC085 11/09 A3008 RMK AO2 P0001
                 T01060089 =
2018-04-24 06:53 METAR KPKB 241053Z 08008KT 8SM -RA OVC080 11/09 A3009 RMK AO2 SLP187 P0008
                 T01060089 =
2018-04-24 05:53 METAR KPKB 240953Z AUTO 07008KT 4SM RA BR BKN075 OVC090 11/09 A3008 RMK AO2
                 SLP185 P0013 T01110094 =
2018-04-24 04:53 METAR KPKB 240853Z AUTO 07007KT 5SM -RA BR BKN075 OVC085 11/09 A3010 RMK AO2
                 SLP192 P0009 60015 T01110094 58013 =
2018-04-24 03:53 METAR KPKB 240753Z AUTO 11005KT 6SM -RA BR OVC085 11/10 A3012 RMK AO2 SLP198
                 P0004 T01110100 =
2018-04-24 02:53 METAR KPKB 240653Z AUTO 08006KT 7SM -RA OVC090 12/10 A3012 RMK AO2 RAE20B41
                 SLP199 P0002 T01170100 =
2018-04-24 01:53 METAR KPKB 240553Z AUTO 08005KT 10SM -RA FEW065 OVC090 12/09 A3014 RMK AO2
                 SLP204 P0001 60006 T01170094 10128 20117 56015 =

Support USWX by starting your Amazon purchase here.